Hafnia Magellan — 9V3279 — position and weather

sailwx.info

Track history (hours):
 
Tides and Currents Weather Stations Pressure Air Temp Water Temp Dewpoint Dewpoint Depression Visibility Wind Speed Wind Dir Waves Ship Positions

Hafnia Magellan

Last reported at 2018-Apr-24 02:31 UTC. Time now 2018-Apr-24 02:34 UTC.
Position N 55°02' E 010°60'.

Length 184 m; draft 11.3 m.

Type: Tanker. MMSI: 566573000.

Date/timePositionNaut miles runAvg speedWind from/ knotsBaromVisibWave heightAir tempDewpointWater temp
2018-Apr-24 02:31N 55°02' E 010°60'611.5
2018-Apr-24 02:01N 54°57' E 010°55'611.6
2018-Apr-24 01:31N 54°52' E 010°50'611.1
2018-Apr-24 01:01N 54°47' E 010°49'611.7
2018-Apr-24 00:31N 54°41' E 010°47'611.9
2018-Apr-24 00:01N 54°38' E 010°55'611.6
2018-Apr-23 23:30N 54°36' E 011°05'611.8
2018-Apr-23 23:01N 54°35' E 011°15'611.8
2018-Apr-23 22:31N 54°32' E 011°24'611.8
2018-Apr-23 22:01N 54°29' E 011°33'611.8
2018-Apr-23 21:31N 54°27' E 011°42'711.8
2018-Apr-23 20:57N 54°26' E 011°54'512.1
2018-Apr-23 20:30N 54°26' E 012°03'611.2
2018-Apr-23 20:00N 54°28' E 012°12'612.1
2018-Apr-23 19:29N 54°34' E 012°15'4 9.2
2018-Apr-23 19:00N 54°38' E 012°20'7011.3
2018-Apr-23 12:51N 55°08' E 014°08'512.1
2018-Apr-23 12:27N 55°12' E 014°14'611.7
2018-Apr-23 11:59N 55°16' E 014°21'611.9
2018-Apr-23 11:30N 55°21' E 014°27'612.1
2018-Apr-23 11:00N 55°25' E 014°33'611.6
2018-Apr-23 10:29N 55°29' E 014°42'612.0
2018-Apr-23 10:00N 55°31' E 014°51'712.2
2018-Apr-23 09:26N 55°35' E 015°02'512.0
2018-Apr-23 09:00N 55°37' E 015°10'612.0
2018-Apr-23 08:30N 55°39' E 015°20'612.3
2018-Apr-23 08:01N 55°41' E 015°30'612.3
2018-Apr-23 07:30N 55°42' E 015°41'612.3
2018-Apr-23 07:00N 55°44' E 015°52'612.3
2018-Apr-23 06:30N 55°45' E 016°02'612.4
2018-Apr-23 06:00N 55°47' E 016°13'612.7
2018-Apr-23 05:31N 55°48' E 016°24'612.7
2018-Apr-23 05:00N 55°50' E 016°35'612.6
2018-Apr-23 04:30N 55°51' E 016°46'612.6
2018-Apr-23 04:00N 55°53' E 016°57'612.7
2018-Apr-23 03:30N 55°54' E 017°08'612.6
2018-Apr-23 03:00N 55°56' E 017°18'612.6
2018-Apr-23 02:30N 55°58' E 017°29'612.6
2018-Apr-23 02:00N 55°59' E 017°40'912.5
2018-Apr-23 01:18N 56°04' E 017°54'412.5
2018-Apr-23 00:58N 56°06' E 018°00'1812.6
2018-Apr-22 23:32N 56°15' E 018°28'112.7
2018-Apr-22 23:26N 56°16' E 018°30'612.6
2018-Apr-22 22:59N 56°19' E 018°39'22612.6
2018-Apr-22 04:58N 59°30' E 022°28'712.1
2018-Apr-22 04:21N 59°33' E 022°41'1211.4
2018-Apr-22 03:20N 59°36' E 023°03'511.9
2018-Apr-22 02:55N 59°37' E 023°12'512.1
2018-Apr-22 02:31N 59°38' E 023°22'612.2
2018-Apr-22 02:01N 59°40' E 023°33'612.2
2018-Apr-22 01:31N 59°42' E 023°45'612.1
2018-Apr-22 01:01N 59°44' E 023°56'612.3
2018-Apr-22 00:31N 59°45' E 024°08'612.5
2018-Apr-22 00:00N 59°47' E 024°20'612.5
2018-Apr-21 23:31N 59°48' E 024°32'612.4
2018-Apr-21 23:01N 59°49' E 024°44'612.5
2018-Apr-21 22:31N 59°51' E 024°56'612.4
2018-Apr-21 22:01N 59°52' E 025°08'612.3
2018-Apr-21 21:30N 59°53' E 025°21'612.1
2018-Apr-21 20:59N 59°54' E 025°33'912.1
2018-Apr-21 20:16N 59°55' E 025°50'1112.0
2018-Apr-21 19:19N 59°58' E 026°12'412.0
2018-Apr-21 19:00N 59°59' E 026°19'612.2
2018-Apr-21 18:30N 60°01' E 026°31'612.0
2018-Apr-21 18:01N 60°01' E 026°43'712.4
2018-Apr-21 17:28N 59°60' E 026°56'511.6
2018-Apr-21 17:00N 60°01' E 027°07'612.9
2018-Apr-21 16:30N 60°04' E 027°18'714.6
2018-Apr-21 16:00N 60°08' E 027°30'714.2
2018-Apr-21 15:30N 60°11' E 027°43'713.7
2018-Apr-21 15:01N 60°16' E 027°52'612.7
2018-Apr-21 14:30N 60°21' E 027°60'5 9.5
2018-Apr-21 14:00N 60°25' E 028°06'4 7.6
2018-Apr-21 13:31N 60°26' E 028°13'4 0.1
2018-Apr-19 22:10N 60°28' E 028°20'210.1
2018-Apr-19 22:00N 60°27' E 028°18'5 9.9
2018-Apr-19 21:30N 60°25' E 028°09'3 6.4
2018-Apr-19 21:00N 60°23' E 028°03'3 5.7
2018-Apr-19 20:30N 60°21' E 028°00'3 5.1
2018-Apr-19 20:00N 60°19' E 027°57'3 6.6
2018-Apr-19 19:31N 60°16' E 027°53'3 6.7
2018-Apr-19 19:01N 60°13' E 027°49'3 6.8
2018-Apr-19 18:30N 60°10' E 027°46'3 6.9
2018-Apr-19 18:00N 60°09' E 027°40'4 7.1
2018-Apr-19 17:30N 60°07' E 027°34'4 7.3
2018-Apr-19 17:00N 60°05' E 027°27'4 7.4
2018-Apr-19 16:30N 60°03' E 027°21'4 8.9
2018-Apr-19 16:01N 60°03' E 027°12'4 7.7
2018-Apr-19 15:30N 60°02' E 027°04'1 2.0
2018-Apr-19 15:00N 60°01' E 027°03'0 0.0
2018-Apr-19 14:30N 60°01' E 027°03'0 0.0
2018-Apr-19 14:00N 60°01' E 027°03'0 0.0
2018-Apr-19 13:30N 60°01' E 027°03'0 0.0
2018-Apr-19 13:00N 60°01' E 027°03'0 0.1
2018-Apr-19 12:30N 60°01' E 027°03'0 0.0
2018-Apr-19 12:00N 60°01' E 027°03'0 0.0
2018-Apr-19 11:30N 60°01' E 027°03'0 0.0
2018-Apr-19 11:00N 60°01' E 027°03'0 0.0
2018-Apr-19 10:30N 60°01' E 027°03'0 0.0
2018-Apr-19 10:00N 60°01' E 027°03'0 0.0
2018-Apr-19 09:30N 60°01' E 027°03'0 0.0
2018-Apr-19 09:00N 60°01' E 027°03'0 0.0
2018-Apr-19 08:30N 60°01' E 027°03'0 0.0
2018-Apr-19 08:00N 60°01' E 027°03'0 0.0
2018-Apr-19 07:30N 60°01' E 027°03'0 0.0
2018-Apr-19 07:00N 60°01' E 027°03'0 0.0
2018-Apr-19 06:27N 60°01' E 027°03'0 0.0
2018-Apr-19 06:00N 60°01' E 027°03'0 0.2
2018-Apr-19 05:29N 60°01' E 027°03'1 2.3
2018-Apr-19 05:00N 60°01' E 027°05'2 3.8
2018-Apr-19 04:30N 59°59' E 027°05'3 6.8
2018-Apr-19 04:01N 59°58' E 026°59'511.0
2018-Apr-19 03:31N 59°59' E 026°48'4 6.9
2018-Apr-19 03:00N 59°59' E 026°41'3 6.8
2018-Apr-19 02:30N 59°59' E 026°34'3 6.8
2018-Apr-19 02:00N 59°58' E 026°28'4 7.1
2018-Apr-19 01:30N 59°57' E 026°21'4 7.2
2018-Apr-19 01:00N 59°56' E 026°14'20 7.2
2018-Apr-18 22:11N 59°51' E 025°35'3 7.3
2018-Apr-18 21:49N 59°50' E 025°30'4 7.1
2018-Apr-18 21:14N 59°50' E 025°22'2 7.1
2018-Apr-18 21:00N 59°50' E 025°18'4 7.1
2018-Apr-18 20:30N 59°49' E 025°12'4 7.1
2018-Apr-18 20:00N 59°48' E 025°05'4 7.2
2018-Apr-18 19:31N 59°48' E 024°58'4 7.3
2018-Apr-18 19:00N 59°47' E 024°50'4 7.4
2018-Apr-18 18:30N 59°46' E 024°43'4 7.4
2018-Apr-18 18:00N 59°45' E 024°36'4 7.4
2018-Apr-18 17:31N 59°44' E 024°29'3 6.3
2018-Apr-18 17:00N 59°42' E 024°25'3 6.9
2018-Apr-18 16:30N 59°38' E 024°25'4 7.2
2018-Apr-18 16:01N 59°35' E 024°24'4 7.3
2018-Apr-18 15:31N 59°32' E 024°27'3 6.8
2018-Apr-18 15:01N 59°29' E 024°32'0 0.5
2018-Apr-18 14:30N 59°29' E 024°32'0 0.0
2018-Apr-18 14:00N 59°29' E 024°32'0 0.0
2018-Apr-18 13:30N 59°29' E 024°32'0 0.0
2018-Apr-18 13:00N 59°29' E 024°32'0 0.1
2018-Apr-18 12:30N 59°29' E 024°32'0 0.0
2018-Apr-18 12:00N 59°29' E 024°32'0 0.0
2018-Apr-18 11:30N 59°29' E 024°32'0 0.0
2018-Apr-18 11:00N 59°29' E 024°32'0 0.0
2018-Apr-18 10:27N 59°29' E 024°32'0 0.0
2018-Apr-18 09:57N 59°29' E 024°32'0 0.0
2018-Apr-18 09:30N 59°29' E 024°32'0 0.0
2018-Apr-18 08:57N 59°29' E 024°32'0 0.0
2018-Apr-18 08:30N 59°29' E 024°32'0 0.0
2018-Apr-18 08:00N 59°29' E 024°32'0 0.0
2018-Apr-18 07:27N 59°29' E 024°32'0 0.0
2018-Apr-18 07:00N 59°29' E 024°32'0 0.0
2018-Apr-18 06:30N 59°29' E 024°32'0 0.0
2018-Apr-18 06:00N 59°29' E 024°32'0 0.0
2018-Apr-18 05:30N 59°29' E 024°32'0 0.0
2018-Apr-18 05:00N 59°29' E 024°32'0 0.1
2018-Apr-18 04:30N 59°29' E 024°32'0 0.1
2018-Apr-18 04:00N 59°29' E 024°32'0 0.0
2018-Apr-18 03:30N 59°29' E 024°32'0 0.6
2018-Apr-18 03:00N 59°29' E 024°32'3 6.0
2018-Apr-18 02:30N 59°30' E 024°26'5 9.4
2018-Apr-18 02:00N 59°30' E 024°17'611.9
2018-Apr-18 01:30N 59°30' E 024°05'814.3
2018-Apr-18 00:56N 59°30' E 023°49'715.1
2018-Apr-18 00:28N 59°31' E 023°35'715.3
2018-Apr-18 00:01N 59°31' E 023°21'714.9
2018-Apr-17 23:30N 59°31' E 023°07'2514.7
2018-Apr-17 21:49N 59°20' E 022°23'914.8
2018-Apr-17 21:12N 59°14' E 022°08'26714.1
2018-Apr-17 02:15N 55°49' E 016°52'414.9
2018-Apr-17 02:01N 55°48' E 016°45'714.8
2018-Apr-17 01:31N 55°46' E 016°33'714.8
2018-Apr-17 01:00N 55°44' E 016°20'714.9
2018-Apr-17 00:30N 55°42' E 016°07'714.8
2018-Apr-17 00:00N 55°41' E 015°54'715.0
2018-Apr-16 23:30N 55°39' E 015°41'714.8
2018-Apr-16 23:00N 55°38' E 015°28'714.8
2018-Apr-16 22:31N 55°35' E 015°17'714.8
2018-Apr-16 22:00N 55°31' E 015°05'714.8
2018-Apr-16 21:31N 55°27' E 014°54'814.7
2018-Apr-16 21:00N 55°24' E 014°42'714.5
2018-Apr-16 20:30N 55°19' E 014°33'714.8
2018-Apr-16 20:00N 55°14' E 014°25'715.0
2018-Apr-16 19:30N 55°08' E 014°17'715.0
2018-Apr-16 19:00N 55°02' E 014°09'714.7
2018-Apr-16 18:30N 54°59' E 013°57'815.3
2018-Apr-16 18:00N 54°57' E 013°44'915.3
2018-Apr-16 17:27N 54°54' E 013°30'814.9
2018-Apr-16 16:57N 54°52' E 013°18'1514.8
2018-Apr-16 15:54N 54°47' E 012°52'814.6
2018-Apr-16 15:21N 54°43' E 012°40'714.8
2018-Apr-16 14:54N 54°40' E 012°30'614.8
2018-Apr-16 14:30N 54°37' E 012°21'714.2
2018-Apr-16 14:00N 54°30' E 012°16'714.0
2018-Apr-16 13:30N 54°25' E 012°09'914.6
2018-Apr-16 12:53N 54°25' E 011°53'614.3
2018-Apr-16 12:27N 54°26' E 011°43'614.4
2018-Apr-16 12:00N 54°29' E 011°33'714.9
2018-Apr-16 11:31N 54°32' E 011°21'714.7
2018-Apr-16 11:00N 54°35' E 011°10'714.2
2018-Apr-16 10:30N 54°35' E 010°57'714.6
2018-Apr-16 10:00N 54°34' E 010°45'714.1
2018-Apr-16 09:30N 54°33' E 010°33'612.7
2018-Apr-16 09:00N 54°31' E 010°22'510.7
2018-Apr-16 08:31N 54°27' E 010°15'6 9.4
2018-Apr-16 07:50N 54°22' E 010°09'8 3.3
2018-Apr-16 05:17N 54°21' E 009°55'2 6.4
2018-Apr-16 04:57N 54°22' E 009°52'3 7.5
2018-Apr-16 04:30N 54°21' E 009°46'3 6.6
2018-Apr-16 04:00N 54°18' E 009°43'4 7.1
2018-Apr-16 03:31N 54°16' E 009°38'4 7.1
2018-Apr-16 03:00N 54°13' E 009°35'4 7.6
2018-Apr-16 02:31N 54°11' E 009°30'4 7.2
2018-Apr-16 02:00N 54°10' E 009°24'4 7.6
2018-Apr-16 01:31N 54°07' E 009°20'4 8.0
2018-Apr-16 01:01N 54°03' E 009°18'2 3.5
2018-Apr-16 00:31N 54°01' E 009°18'4 7.6
2018-Apr-16 00:00N 53°58' E 009°15'4 7.6
2018-Apr-15 23:30N 53°55' E 009°11'2 3.5
2018-Apr-15 23:00N 53°54' E 009°09'0 0.0
2018-Apr-15 22:30N 53°54' E 009°09'2 3.0
2018-Apr-15 22:01N 53°53' E 009°06'4 7.6
2018-Apr-15 21:30N 53°51' E 009°01'714.7
2018-Apr-15 21:00N 53°50' E 008°48'713.7
2018-Apr-15 20:30N 53°55' E 008°40'714.8
2018-Apr-15 20:01N 53°58' E 008°29'814.9
2018-Apr-15 19:30N 53°60' E 008°16'611.5
2018-Apr-15 19:00N 53°59' E 008°06'612.0
2018-Apr-15 18:30N 53°56' E 007°58'5 9.1
2018-Apr-15 18:00N 53°52' E 007°56'613.1
2018-Apr-15 17:30N 53°49' E 008°07'714.2
2018-Apr-15 17:00N 53°44' E 008°15'815.4
2018-Apr-15 16:30N 53°39' E 008°24'713.8
2018-Apr-15 16:01N 53°34' E 008°32'5 9.2
2018-Apr-15 15:30N 53°30' E 008°30'714.7
2018-Apr-15 15:01N 53°22' E 008°30'510.9
2018-Apr-15 14:30N 53°17' E 008°29'611.3
2018-Apr-15 14:00N 53°11' E 008°32'4 8.1
2018-Apr-15 13:30N 53°09' E 008°38'4 7.2
2018-Apr-15 13:00N 53°07' E 008°42'0 0.3
2018-Apr-15 12:30N 53°07' E 008°43'0 0.9
2018-Apr-15 12:00N 53°08' E 008°43'0 0.4
2018-Apr-15 11:28N 53°08' E 008°43'0 0.0
2018-Apr-15 10:58N 53°08' E 008°43'0 0.0
2018-Apr-15 10:28N 53°08' E 008°43'0 0.0
2018-Apr-15 09:58N 53°08' E 008°43'0 0.0
2018-Apr-15 09:30N 53°08' E 008°43'0 0.0
2018-Apr-15 08:58N 53°08' E 008°43'0 0.0
2018-Apr-15 08:28N 53°08' E 008°43'0 0.0
2018-Apr-15 07:58N 53°08' E 008°43'0 0.0
2018-Apr-15 07:28N 53°08' E 008°43'0 0.0
2018-Apr-15 06:58N 53°08' E 008°43'0 0.0
2018-Apr-15 06:28N 53°08' E 008°43'0 0.0
2018-Apr-15 05:58N 53°08' E 008°43'0 0.0
2018-Apr-15 05:28N 53°08' E 008°43'0 0.0
2018-Apr-15 04:58N 53°08' E 008°43'0 0.0
2018-Apr-15 04:28N 53°08' E 008°43'0 0.0
2018-Apr-15 03:58N 53°08' E 008°43'0 0.0
2018-Apr-15 03:28N 53°08' E 008°43'0 0.0
2018-Apr-15 02:58N 53°08' E 008°43'0 0.0
2018-Apr-15 02:28N 53°08' E 008°43'0 0.0
2018-Apr-15 01:58N 53°08' E 008°43'0 0.0
2018-Apr-15 01:28N 53°08' E 008°43'0 0.0
2018-Apr-15 00:58N 53°08' E 008°43'0 0.0
2018-Apr-15 00:28N 53°08' E 008°43'0 0.0
2018-Apr-14 23:58N 53°08' E 008°43'0 0.0
2018-Apr-14 23:28N 53°08' E 008°43'0 0.0
2018-Apr-14 22:58N 53°08' E 008°43'0 0.0
2018-Apr-14 22:28N 53°08' E 008°43'0 0.0
2018-Apr-14 21:58N 53°08' E 008°43'0 0.0
2018-Apr-14 21:28N 53°08' E 008°43'0 0.0
2018-Apr-14 20:59N 53°08' E 008°43'0 0.0
2018-Apr-14 20:28N 53°08' E 008°43'0 0.0
2018-Apr-14 19:58N 53°08' E 008°43'0 0.0
2018-Apr-14 19:28N 53°08' E 008°43'0 0.0
2018-Apr-14 18:58N 53°08' E 008°43'0 0.0
2018-Apr-14 18:28N 53°08' E 008°43'0 0.0
2018-Apr-14 17:58N 53°08' E 008°43'0 0.0
2018-Apr-14 17:29N 53°08' E 008°43'0 0.0
2018-Apr-14 16:58N 53°08' E 008°43'0 0.0
2018-Apr-14 16:28N 53°08' E 008°43'0 0.0
2018-Apr-14 15:58N 53°08' E 008°43'0 0.0
2018-Apr-14 15:28N 53°08' E 008°43'0 0.0
2018-Apr-14 14:58N 53°08' E 008°43'0 0.0
2018-Apr-14 14:28N 53°08' E 008°43'0 0.0
2018-Apr-14 13:58N 53°08' E 008°43'0 0.0
2018-Apr-14 13:28N 53°08' E 008°43'0 0.0
2018-Apr-14 12:58N 53°08' E 008°43'0 0.0
2018-Apr-14 12:28N 53°08' E 008°43'0 0.0
2018-Apr-14 11:58N 53°08' E 008°43'0 0.0
2018-Apr-14 11:28N 53°08' E 008°43'0 0.0
2018-Apr-14 10:58N 53°08' E 008°43'0 0.0
2018-Apr-14 10:28N 53°08' E 008°43'0 0.0
2018-Apr-14 09:58N 53°08' E 008°43'0 0.0
2018-Apr-14 09:29N 53°08' E 008°43'0 0.0
2018-Apr-14 08:58N 53°08' E 008°43'0 0.0
2018-Apr-14 08:28N 53°08' E 008°43'0 0.0
2018-Apr-14 07:58N 53°08' E 008°43'0 0.0
2018-Apr-14 07:28N 53°08' E 008°43'0 0.0
2018-Apr-14 06:58N 53°08' E 008°43'0 0.0
2018-Apr-14 06:28N 53°08' E 008°43'0 0.0
2018-Apr-14 05:58N 53°08' E 008°43'0 0.0
2018-Apr-14 05:28N 53°08' E 008°43'0 0.0
2018-Apr-14 04:58N 53°08' E 008°43'0 0.0
2018-Apr-14 04:28N 53°08' E 008°43'0 0.0
2018-Apr-14 03:58N 53°08' E 008°43'0 0.0
2018-Apr-14 03:28N 53°08' E 008°43'0 0.0
2018-Apr-14 02:58N 53°08' E 008°43'  
Track history (hours):
 
Tides and Currents Weather Stations Pressure Air Temp Water Temp Dewpoint Dewpoint Depression Visibility Wind Speed Wind Dir Waves Ship Positions

Hafnia Magellan

Last reported at 2018-Apr-24 02:31 UTC. Time now 2018-Apr-24 02:34 UTC.
Position N 55°02' E 010°60'.

Length 184 m; draft 11.3 m.

Type: Tanker. MMSI: 566573000.

Date/timePositionNaut miles runAvg speedWind from/ knotsBaromVisibWave heightAir tempDewpointWater temp
2018-Apr-24 02:31N 55°02' E 010°60'611.5
2018-Apr-24 02:01N 54°57' E 010°55'611.6
2018-Apr-24 01:31N 54°52' E 010°50'611.1
2018-Apr-24 01:01N 54°47' E 010°49'611.7
2018-Apr-24 00:31N 54°41' E 010°47'611.9
2018-Apr-24 00:01N 54°38' E 010°55'611.6
2018-Apr-23 23:30N 54°36' E 011°05'611.8
2018-Apr-23 23:01N 54°35' E 011°15'611.8
2018-Apr-23 22:31N 54°32' E 011°24'611.8
2018-Apr-23 22:01N 54°29' E 011°33'611.8
2018-Apr-23 21:31N 54°27' E 011°42'711.8
2018-Apr-23 20:57N 54°26' E 011°54'512.1
2018-Apr-23 20:30N 54°26' E 012°03'611.2
2018-Apr-23 20:00N 54°28' E 012°12'612.1
2018-Apr-23 19:29N 54°34' E 012°15'4 9.2
2018-Apr-23 19:00N 54°38' E 012°20'7011.3
2018-Apr-23 12:51N 55°08' E 014°08'512.1
2018-Apr-23 12:27N 55°12' E 014°14'611.7
2018-Apr-23 11:59N 55°16' E 014°21'611.9
2018-Apr-23 11:30N 55°21' E 014°27'612.1
2018-Apr-23 11:00N 55°25' E 014°33'611.6
2018-Apr-23 10:29N 55°29' E 014°42'612.0
2018-Apr-23 10:00N 55°31' E 014°51'712.2
2018-Apr-23 09:26N 55°35' E 015°02'512.0
2018-Apr-23 09:00N 55°37' E 015°10'612.0
2018-Apr-23 08:30N 55°39' E 015°20'612.3
2018-Apr-23 08:01N 55°41' E 015°30'612.3
2018-Apr-23 07:30N 55°42' E 015°41'612.3
2018-Apr-23 07:00N 55°44' E 015°52'612.3
2018-Apr-23 06:30N 55°45' E 016°02'612.4
2018-Apr-23 06:00N 55°47' E 016°13'612.7
2018-Apr-23 05:31N 55°48' E 016°24'612.7
2018-Apr-23 05:00N 55°50' E 016°35'612.6
2018-Apr-23 04:30N 55°51' E 016°46'612.6
2018-Apr-23 04:00N 55°53' E 016°57'612.7
2018-Apr-23 03:30N 55°54' E 017°08'612.6
2018-Apr-23 03:00N 55°56' E 017°18'612.6
2018-Apr-23 02:30N 55°58' E 017°29'612.6
2018-Apr-23 02:00N 55°59' E 017°40'912.5
2018-Apr-23 01:18N 56°04' E 017°54'412.5
2018-Apr-23 00:58N 56°06' E 018°00'1812.6
2018-Apr-22 23:32N 56°15' E 018°28'112.7
2018-Apr-22 23:26N 56°16' E 018°30'612.6
2018-Apr-22 22:59N 56°19' E 018°39'22612.6
2018-Apr-22 04:58N 59°30' E 022°28'712.1
2018-Apr-22 04:21N 59°33' E 022°41'1211.4
2018-Apr-22 03:20N 59°36' E 023°03'511.9
2018-Apr-22 02:55N 59°37' E 023°12'512.1
2018-Apr-22 02:31N 59°38' E 023°22'612.2
2018-Apr-22 02:01N 59°40' E 023°33'612.2
2018-Apr-22 01:31N 59°42' E 023°45'612.1
2018-Apr-22 01:01N 59°44' E 023°56'612.3
2018-Apr-22 00:31N 59°45' E 024°08'612.5
2018-Apr-22 00:00N 59°47' E 024°20'612.5
2018-Apr-21 23:31N 59°48' E 024°32'612.4
2018-Apr-21 23:01N 59°49' E 024°44'612.5
2018-Apr-21 22:31N 59°51' E 024°56'612.4
2018-Apr-21 22:01N 59°52' E 025°08'612.3
2018-Apr-21 21:30N 59°53' E 025°21'612.1
2018-Apr-21 20:59N 59°54' E 025°33'912.1
2018-Apr-21 20:16N 59°55' E 025°50'1112.0
2018-Apr-21 19:19N 59°58' E 026°12'412.0
2018-Apr-21 19:00N 59°59' E 026°19'612.2
2018-Apr-21 18:30N 60°01' E 026°31'612.0
2018-Apr-21 18:01N 60°01' E 026°43'712.4
2018-Apr-21 17:28N 59°60' E 026°56'511.6
2018-Apr-21 17:00N 60°01' E 027°07'612.9
2018-Apr-21 16:30N 60°04' E 027°18'714.6
2018-Apr-21 16:00N 60°08' E 027°30'714.2
2018-Apr-21 15:30N 60°11' E 027°43'713.7
2018-Apr-21 15:01N 60°16' E 027°52'612.7
2018-Apr-21 14:30N 60°21' E 027°60'5 9.5
2018-Apr-21 14:00N 60°25' E 028°06'4 7.6
2018-Apr-21 13:31N 60°26' E 028°13'4 0.1
2018-Apr-19 22:10N 60°28' E 028°20'210.1
2018-Apr-19 22:00N 60°27' E 028°18'5 9.9
2018-Apr-19 21:30N 60°25' E 028°09'3 6.4
2018-Apr-19 21:00N 60°23' E 028°03'3 5.7
2018-Apr-19 20:30N 60°21' E 028°00'3 5.1
2018-Apr-19 20:00N 60°19' E 027°57'3 6.6
2018-Apr-19 19:31N 60°16' E 027°53'3 6.7
2018-Apr-19 19:01N 60°13' E 027°49'3 6.8
2018-Apr-19 18:30N 60°10' E 027°46'3 6.9
2018-Apr-19 18:00N 60°09' E 027°40'4 7.1
2018-Apr-19 17:30N 60°07' E 027°34'4 7.3
2018-Apr-19 17:00N 60°05' E 027°27'4 7.4
2018-Apr-19 16:30N 60°03' E 027°21'4 8.9
2018-Apr-19 16:01N 60°03' E 027°12'4 7.7
2018-Apr-19 15:30N 60°02' E 027°04'1 2.0
2018-Apr-19 15:00N 60°01' E 027°03'0 0.0
2018-Apr-19 14:30N 60°01' E 027°03'0 0.0
2018-Apr-19 14:00N 60°01' E 027°03'0 0.0
2018-Apr-19 13:30N 60°01' E 027°03'0 0.0
2018-Apr-19 13:00N 60°01' E 027°03'0 0.1
2018-Apr-19 12:30N 60°01' E 027°03'0 0.0
2018-Apr-19 12:00N 60°01' E 027°03'0 0.0
2018-Apr-19 11:30N 60°01' E 027°03'0 0.0
2018-Apr-19 11:00N 60°01' E 027°03'0 0.0
2018-Apr-19 10:30N 60°01' E 027°03'0 0.0
2018-Apr-19 10:00N 60°01' E 027°03'0 0.0
2018-Apr-19 09:30N 60°01' E 027°03'0 0.0
2018-Apr-19 09:00N 60°01' E 027°03'0 0.0
2018-Apr-19 08:30N 60°01' E 027°03'0 0.0
2018-Apr-19 08:00N 60°01' E 027°03'0 0.0
2018-Apr-19 07:30N 60°01' E 027°03'0 0.0
2018-Apr-19 07:00N 60°01' E 027°03'0 0.0
2018-Apr-19 06:27N 60°01' E 027°03'0 0.0
2018-Apr-19 06:00N 60°01' E 027°03'0 0.2
2018-Apr-19 05:29N 60°01' E 027°03'1 2.3
2018-Apr-19 05:00N 60°01' E 027°05'2 3.8
2018-Apr-19 04:30N 59°59' E 027°05'3 6.8
2018-Apr-19 04:01N 59°58' E 026°59'511.0
2018-Apr-19 03:31N 59°59' E 026°48'4 6.9
2018-Apr-19 03:00N 59°59' E 026°41'3 6.8
2018-Apr-19 02:30N 59°59' E 026°34'3 6.8
2018-Apr-19 02:00N 59°58' E 026°28'4 7.1
2018-Apr-19 01:30N 59°57' E 026°21'4 7.2
2018-Apr-19 01:00N 59°56' E 026°14'20 7.2
2018-Apr-18 22:11N 59°51' E 025°35'3 7.3
2018-Apr-18 21:49N 59°50' E 025°30'4 7.1
2018-Apr-18 21:14N 59°50' E 025°22'2 7.1
2018-Apr-18 21:00N 59°50' E 025°18'4 7.1
2018-Apr-18 20:30N 59°49' E 025°12'4 7.1
2018-Apr-18 20:00N 59°48' E 025°05'4 7.2
2018-Apr-18 19:31N 59°48' E 024°58'4 7.3
2018-Apr-18 19:00N 59°47' E 024°50'4 7.4
2018-Apr-18 18:30N 59°46' E 024°43'4 7.4
2018-Apr-18 18:00N 59°45' E 024°36'4 7.4
2018-Apr-18 17:31N 59°44' E 024°29'3 6.3
2018-Apr-18 17:00N 59°42' E 024°25'3 6.9
2018-Apr-18 16:30N 59°38' E 024°25'4 7.2
2018-Apr-18 16:01N 59°35' E 024°24'4 7.3
2018-Apr-18 15:31N 59°32' E 024°27'3 6.8
2018-Apr-18 15:01N 59°29' E 024°32'0 0.5
2018-Apr-18 14:30N 59°29' E 024°32'0 0.0
2018-Apr-18 14:00N 59°29' E 024°32'0 0.0
2018-Apr-18 13:30N 59°29' E 024°32'0 0.0
2018-Apr-18 13:00N 59°29' E 024°32'0 0.1
2018-Apr-18 12:30N 59°29' E 024°32'0 0.0
2018-Apr-18 12:00N 59°29' E 024°32'0 0.0
2018-Apr-18 11:30N 59°29' E 024°32'0 0.0
2018-Apr-18 11:00N 59°29' E 024°32'0 0.0
2018-Apr-18 10:27N 59°29' E 024°32'0 0.0
2018-Apr-18 09:57N 59°29' E 024°32'0 0.0
2018-Apr-18 09:30N 59°29' E 024°32'0 0.0
2018-Apr-18 08:57N 59°29' E 024°32'0 0.0
2018-Apr-18 08:30N 59°29' E 024°32'0 0.0
2018-Apr-18 08:00N 59°29' E 024°32'0 0.0
2018-Apr-18 07:27N 59°29' E 024°32'0 0.0
2018-Apr-18 07:00N 59°29' E 024°32'0 0.0
2018-Apr-18 06:30N 59°29' E 024°32'0 0.0
2018-Apr-18 06:00N 59°29' E 024°32'0 0.0
2018-Apr-18 05:30N 59°29' E 024°32'0 0.0
2018-Apr-18 05:00N 59°29' E 024°32'0 0.1
2018-Apr-18 04:30N 59°29' E 024°32'0 0.1
2018-Apr-18 04:00N 59°29' E 024°32'0 0.0
2018-Apr-18 03:30N 59°29' E 024°32'0 0.6
2018-Apr-18 03:00N 59°29' E 024°32'3 6.0
2018-Apr-18 02:30N 59°30' E 024°26'5 9.4
2018-Apr-18 02:00N 59°30' E 024°17'611.9
2018-Apr-18 01:30N 59°30' E 024°05'814.3
2018-Apr-18 00:56N 59°30' E 023°49'715.1
2018-Apr-18 00:28N 59°31' E 023°35'715.3
2018-Apr-18 00:01N 59°31' E 023°21'714.9
2018-Apr-17 23:30N 59°31' E 023°07'2514.7
2018-Apr-17 21:49N 59°20' E 022°23'914.8
2018-Apr-17 21:12N 59°14' E 022°08'26714.1
2018-Apr-17 02:15N 55°49' E 016°52'414.9
2018-Apr-17 02:01N 55°48' E 016°45'714.8
2018-Apr-17 01:31N 55°46' E 016°33'714.8
2018-Apr-17 01:00N 55°44' E 016°20'714.9
2018-Apr-17 00:30N 55°42' E 016°07'714.8
2018-Apr-17 00:00N 55°41' E 015°54'715.0
2018-Apr-16 23:30N 55°39' E 015°41'714.8
2018-Apr-16 23:00N 55°38' E 015°28'714.8
2018-Apr-16 22:31N 55°35' E 015°17'714.8
2018-Apr-16 22:00N 55°31' E 015°05'714.8
2018-Apr-16 21:31N 55°27' E 014°54'814.7
2018-Apr-16 21:00N 55°24' E 014°42'714.5
2018-Apr-16 20:30N 55°19' E 014°33'714.8
2018-Apr-16 20:00N 55°14' E 014°25'715.0
2018-Apr-16 19:30N 55°08' E 014°17'715.0
2018-Apr-16 19:00N 55°02' E 014°09'714.7
2018-Apr-16 18:30N 54°59' E 013°57'815.3
2018-Apr-16 18:00N 54°57' E 013°44'915.3
2018-Apr-16 17:27N 54°54' E 013°30'814.9
2018-Apr-16 16:57N 54°52' E 013°18'1514.8
2018-Apr-16 15:54N 54°47' E 012°52'814.6
2018-Apr-16 15:21N 54°43' E 012°40'714.8
2018-Apr-16 14:54N 54°40' E 012°30'614.8
2018-Apr-16 14:30N 54°37' E 012°21'714.2
2018-Apr-16 14:00N 54°30' E 012°16'714.0
2018-Apr-16 13:30N 54°25' E 012°09'914.6
2018-Apr-16 12:53N 54°25' E 011°53'614.3
2018-Apr-16 12:27N 54°26' E 011°43'614.4
2018-Apr-16 12:00N 54°29' E 011°33'714.9
2018-Apr-16 11:31N 54°32' E 011°21'714.7
2018-Apr-16 11:00N 54°35' E 011°10'714.2
2018-Apr-16 10:30N 54°35' E 010°57'714.6
2018-Apr-16 10:00N 54°34' E 010°45'714.1
2018-Apr-16 09:30N 54°33' E 010°33'612.7
2018-Apr-16 09:00N 54°31' E 010°22'510.7
2018-Apr-16 08:31N 54°27' E 010°15'6 9.4
2018-Apr-16 07:50N 54°22' E 010°09'8 3.3
2018-Apr-16 05:17N 54°21' E 009°55'2 6.4
2018-Apr-16 04:57N 54°22' E 009°52'3 7.5
2018-Apr-16 04:30N 54°21' E 009°46'3 6.6
2018-Apr-16 04:00N 54°18' E 009°43'4 7.1
2018-Apr-16 03:31N 54°16' E 009°38'4 7.1
2018-Apr-16 03:00N 54°13' E 009°35'4 7.6
2018-Apr-16 02:31N 54°11' E 009°30'4 7.2
2018-Apr-16 02:00N 54°10' E 009°24'4 7.6
2018-Apr-16 01:31N 54°07' E 009°20'4 8.0
2018-Apr-16 01:01N 54°03' E 009°18'2 3.5
2018-Apr-16 00:31N 54°01' E 009°18'4 7.6
2018-Apr-16 00:00N 53°58' E 009°15'4 7.6
2018-Apr-15 23:30N 53°55' E 009°11'2 3.5
2018-Apr-15 23:00N 53°54' E 009°09'0 0.0
2018-Apr-15 22:30N 53°54' E 009°09'2 3.0
2018-Apr-15 22:01N 53°53' E 009°06'4 7.6
2018-Apr-15 21:30N 53°51' E 009°01'714.7
2018-Apr-15 21:00N 53°50' E 008°48'713.7
2018-Apr-15 20:30N 53°55' E 008°40'714.8
2018-Apr-15 20:01N 53°58' E 008°29'814.9
2018-Apr-15 19:30N 53°60' E 008°16'611.5
2018-Apr-15 19:00N 53°59' E 008°06'612.0
2018-Apr-15 18:30N 53°56' E 007°58'5 9.1
2018-Apr-15 18:00N 53°52' E 007°56'613.1
2018-Apr-15 17:30N 53°49' E 008°07'714.2
2018-Apr-15 17:00N 53°44' E 008°15'815.4
2018-Apr-15 16:30N 53°39' E 008°24'713.8
2018-Apr-15 16:01N 53°34' E 008°32'5 9.2
2018-Apr-15 15:30N 53°30' E 008°30'714.7
2018-Apr-15 15:01N 53°22' E 008°30'510.9
2018-Apr-15 14:30N 53°17' E 008°29'611.3
2018-Apr-15 14:00N 53°11' E 008°32'4 8.1
2018-Apr-15 13:30N 53°09' E 008°38'4 7.2
2018-Apr-15 13:00N 53°07' E 008°42'0 0.3
2018-Apr-15 12:30N 53°07' E 008°43'0 0.9
2018-Apr-15 12:00N 53°08' E 008°43'0 0.4
2018-Apr-15 11:28N 53°08' E 008°43'0 0.0
2018-Apr-15 10:58N 53°08' E 008°43'0 0.0
2018-Apr-15 10:28N 53°08' E 008°43'0 0.0
2018-Apr-15 09:58N 53°08' E 008°43'0 0.0
2018-Apr-15 09:30N 53°08' E 008°43'0 0.0
2018-Apr-15 08:58N 53°08' E 008°43'0 0.0
2018-Apr-15 08:28N 53°08' E 008°43'0 0.0
2018-Apr-15 07:58N 53°08' E 008°43'0 0.0
2018-Apr-15 07:28N 53°08' E 008°43'0 0.0
2018-Apr-15 06:58N 53°08' E 008°43'0 0.0
2018-Apr-15 06:28N 53°08' E 008°43'0 0.0
2018-Apr-15 05:58N 53°08' E 008°43'0 0.0
2018-Apr-15 05:28N 53°08' E 008°43'0 0.0
2018-Apr-15 04:58N 53°08' E 008°43'0 0.0
2018-Apr-15 04:28N 53°08' E 008°43'0 0.0
2018-Apr-15 03:58N 53°08' E 008°43'0 0.0
2018-Apr-15 03:28N 53°08' E 008°43'0 0.0
2018-Apr-15 02:58N 53°08' E 008°43'0 0.0
2018-Apr-15 02:28N 53°08' E 008°43'0 0.0
2018-Apr-15 01:58N 53°08' E 008°43'0 0.0
2018-Apr-15 01:28N 53°08' E 008°43'0 0.0
2018-Apr-15 00:58N 53°08' E 008°43'0 0.0
2018-Apr-15 00:28N 53°08' E 008°43'0 0.0
2018-Apr-14 23:58N 53°08' E 008°43'0 0.0
2018-Apr-14 23:28N 53°08' E 008°43'0 0.0
2018-Apr-14 22:58N 53°08' E 008°43'0 0.0
2018-Apr-14 22:28N 53°08' E 008°43'0 0.0
2018-Apr-14 21:58N 53°08' E 008°43'0 0.0
2018-Apr-14 21:28N 53°08' E 008°43'0 0.0
2018-Apr-14 20:59N 53°08' E 008°43'0 0.0
2018-Apr-14 20:28N 53°08' E 008°43'0 0.0
2018-Apr-14 19:58N 53°08' E 008°43'0 0.0
2018-Apr-14 19:28N 53°08' E 008°43'0 0.0
2018-Apr-14 18:58N 53°08' E 008°43'0 0.0
2018-Apr-14 18:28N 53°08' E 008°43'0 0.0
2018-Apr-14 17:58N 53°08' E 008°43'0 0.0
2018-Apr-14 17:29N 53°08' E 008°43'0 0.0
2018-Apr-14 16:58N 53°08' E 008°43'0 0.0
2018-Apr-14 16:28N 53°08' E 008°43'0 0.0
2018-Apr-14 15:58N 53°08' E 008°43'0 0.0
2018-Apr-14 15:28N 53°08' E 008°43'0 0.0
2018-Apr-14 14:58N 53°08' E 008°43'0 0.0
2018-Apr-14 14:28N 53°08' E 008°43'0 0.0
2018-Apr-14 13:58N 53°08' E 008°43'0 0.0
2018-Apr-14 13:28N 53°08' E 008°43'0 0.0
2018-Apr-14 12:58N 53°08' E 008°43'0 0.0
2018-Apr-14 12:28N 53°08' E 008°43'0 0.0
2018-Apr-14 11:58N 53°08' E 008°43'0 0.0
2018-Apr-14 11:28N 53°08' E 008°43'0 0.0
2018-Apr-14 10:58N 53°08' E 008°43'0 0.0
2018-Apr-14 10:28N 53°08' E 008°43'0 0.0
2018-Apr-14 09:58N 53°08' E 008°43'0 0.0
2018-Apr-14 09:29N 53°08' E 008°43'0 0.0
2018-Apr-14 08:58N 53°08' E 008°43'0 0.0
2018-Apr-14 08:28N 53°08' E 008°43'0 0.0
2018-Apr-14 07:58N 53°08' E 008°43'0 0.0
2018-Apr-14 07:28N 53°08' E 008°43'0 0.0
2018-Apr-14 06:58N 53°08' E 008°43'0 0.0
2018-Apr-14 06:28N 53°08' E 008°43'0 0.0
2018-Apr-14 05:58N 53°08' E 008°43'0 0.0
2018-Apr-14 05:28N 53°08' E 008°43'0 0.0
2018-Apr-14 04:58N 53°08' E 008°43'0 0.0
2018-Apr-14 04:28N 53°08' E 008°43'0 0.0
2018-Apr-14 03:58N 53°08' E 008°43'0 0.0
2018-Apr-14 03:28N 53°08' E 008°43'0 0.0
2018-Apr-14 02:58N 53°08' E 008°43'  

Dump ship's entire track history